createdAt,value
2017-07-26T00:00:40.541Z,102
2017-07-26T00:01:39.611Z,102
2017-07-26T00:02:38.805Z,101.9
2017-07-26T00:03:37.890Z,101.8
2017-07-26T00:04:37.484Z,101.8
2017-07-26T00:05:36.676Z,101.7
2017-07-26T00:06:35.636Z,101.7
2017-07-26T00:07:34.839Z,101.8
2017-07-26T00:08:34.425Z,101.9
2017-07-26T00:09:33.614Z,101.9
2017-07-26T00:10:32.704Z,101.9
2017-07-26T00:11:31.675Z,101.8
2017-07-26T00:12:31.136Z,101.9
2017-07-26T00:14:29.602Z,101.8
2017-07-26T00:15:29.227Z,102
2017-07-26T00:16:28.304Z,102.1
2017-07-26T00:17:27.384Z,102.1
2017-07-26T00:18:26.577Z,102.2
2017-07-26T00:19:25.771Z,102.3
2017-07-26T00:20:25.361Z,102.5
2017-07-26T00:21:24.583Z,102.7
2017-07-26T00:23:22.690Z,103.4
2017-07-26T00:24:22.389Z,103.7
2017-07-26T00:25:21.594Z,103.9
2017-07-26T00:26:20.797Z,104.3
2017-07-26T00:26:51.213Z,104.3
2017-07-26T00:27:21.735Z,104.6
2017-07-26T00:27:52.007Z,104.6
2017-07-26T00:28:22.402Z,104.8
2017-07-26T00:28:52.896Z,104.8
2017-07-26T00:30:17.665Z,105
2017-07-26T00:31:16.873Z,105.2
2017-07-26T00:32:16.080Z,105.4
2017-07-26T00:33:15.180Z,105.5
2017-07-26T00:34:14.657Z,105.6
2017-07-26T00:35:13.855Z,105.6
2017-07-26T00:36:12.813Z,105.8
2017-07-26T00:37:12.523Z,105.7
2017-07-26T00:38:11.740Z,105.7
2017-07-26T00:39:10.935Z,105.9
2017-07-26T00:39:41.434Z,105.9
2017-07-26T00:40:11.952Z,106.1
2017-07-26T00:41:09.144Z,106.2
2017-07-26T00:42:08.352Z,106.1
2017-07-26T00:43:07.550Z,106.2
2017-07-26T00:44:07.125Z,106.3
2017-07-26T00:45:06.395Z,106.5
2017-07-26T00:46:05.362Z,106.6
2017-07-26T00:47:04.562Z,106.7
2017-07-26T00:48:03.773Z,106.8
2017-07-26T00:49:02.978Z,106.9
2017-07-26T00:50:02.180Z,106.8
2017-07-26T00:51:01.533Z,106.8
2017-07-26T00:52:00.610Z,106.9
2017-07-26T00:53:00.332Z,106.9
2017-07-26T00:54:58.304Z,107
2017-07-26T00:55:58.019Z,107.1
2017-07-26T00:56:28.536Z,107.1
2017-07-26T00:56:59.046Z,107.1
2017-07-26T00:57:29.562Z,107.1
2017-07-26T00:58:00.071Z,107.1
2017-07-26T00:58:30.488Z,107.1
2017-07-26T00:59:01.005Z,107
2017-07-26T00:59:31.520Z,107
2017-07-26T01:00:53.635Z,107.1
2017-07-26T01:01:53.336Z,106.9
2017-07-26T01:02:52.421Z,106.8
2017-07-26T01:04:50.905Z,106.9
2017-07-26T01:05:50.260Z,106.9
2017-07-26T01:06:49.452Z,107
2017-07-26T01:07:48.652Z,107.1
2017-07-26T01:08:47.867Z,107.3
2017-07-26T01:09:46.945Z,107.3
2017-07-26T01:10:46.141Z,107.2
2017-07-26T01:11:45.360Z,107.2
2017-07-26T01:12:44.842Z,107.3
2017-07-26T01:13:43.935Z,107.2
2017-07-26T01:14:43.024Z,107.3
2017-07-26T01:15:42.723Z,107.2
2017-07-26T01:16:41.931Z,107.2
2017-07-26T01:17:41.033Z,107.2
2017-07-26T01:19:39.515Z,107.2
2017-07-26T01:20:09.792Z,107.2
2017-07-26T01:20:40.334Z,107.1
2017-07-26T01:21:10.859Z,107.1
2017-07-26T01:22:37.229Z,107.2
2017-07-26T01:23:36.437Z,107.1
2017-07-26T01:24:35.632Z,107.3
2017-07-26T01:26:34.088Z,106.8
2017-07-26T01:27:33.551Z,106.5
2017-07-26T01:28:32.657Z,106.5
2017-07-26T01:29:31.729Z,106.5
2017-07-26T01:30:30.939Z,106.6
2017-07-26T01:31:30.167Z,106.6
2017-07-26T01:32:29.370Z,106.8
2017-07-26T01:33:28.570Z,106.8
2017-07-26T01:34:27.760Z,106.9
2017-07-26T01:35:27.457Z,106.9
2017-07-26T01:36:26.663Z,106.9
2017-07-26T01:37:25.857Z,107.2
2017-07-26T01:38:24.946Z,107.2
2017-07-26T01:38:55.457Z,107.2
2017-07-26T01:40:23.350Z,107.3
2017-07-26T01:41:22.549Z,107.3
2017-07-26T01:42:21.751Z,107.5
2017-07-26T01:43:20.963Z,107.5
2017-07-26T01:44:20.561Z,107.5
2017-07-26T01:45:19.401Z,107.5
2017-07-26T01:46:18.882Z,107.5
2017-07-26T01:47:17.954Z,107.5
2017-07-26T01:48:17.542Z,107.5
2017-07-26T01:48:47.940Z,107.5
2017-07-26T01:49:18.350Z,107.7
2017-07-26T01:49:48.845Z,107.7
2017-07-26T01:51:15.231Z,107.8
2017-07-26T01:52:14.440Z,107.9
2017-07-26T01:53:13.536Z,107.8
2017-07-26T01:54:12.740Z,107.7
2017-07-26T01:55:11.823Z,107.7
2017-07-26T01:56:11.011Z,107.8
2017-07-26T01:57:10.601Z,107.7
2017-07-26T01:58:09.794Z,107.6
2017-07-26T01:59:08.868Z,107.6
2017-07-26T02:00:08.339Z,107.4
2017-07-26T02:01:07.431Z,107.5
2017-07-26T02:02:06.282Z,107.2
2017-07-26T02:03:05.970Z,107.3
2017-07-26T02:04:05.178Z,107.3
2017-07-26T02:05:04.391Z,107.3
2017-07-26T02:06:03.586Z,107.3
2017-07-26T02:08:01.832Z,107.2
2017-07-26T02:09:01.047Z,107.1
2017-07-26T02:10:00.229Z,107.1
2017-07-26T02:10:59.820Z,107.1
2017-07-26T02:11:58.786Z,107.1
2017-07-26T02:12:57.986Z,107.2
2017-07-26T02:13:57.178Z,107.3
2017-07-26T02:14:56.772Z,107.2
2017-07-26T02:15:27.286Z,107.2
2017-07-26T02:15:57.812Z,107.3
2017-07-26T02:16:55.001Z,107.4
2017-07-26T02:17:54.198Z,107.2
2017-07-26T02:18:53.396Z,107.1
2017-07-26T02:19:52.612Z,107.1
2017-07-26T02:20:51.800Z,107.2
2017-07-26T02:21:51.393Z,107
2017-07-26T02:22:50.592Z,106.7
2017-07-26T02:23:49.679Z,106.7
2017-07-26T02:24:48.910Z,106.7
2017-07-26T02:25:47.982Z,106.9
2017-07-26T02:26:47.682Z,107
2017-07-26T02:27:46.754Z,106.8
2017-07-26T02:28:45.958Z,106.6
2017-07-26T02:29:45.026Z,106.3
2017-07-26T02:30:44.605Z,105.9
2017-07-26T02:31:43.831Z,106
2017-07-26T02:32:43.049Z,105.7
2017-07-26T02:33:42.271Z,105.4
2017-07-26T02:34:41.490Z,105.6
2017-07-26T02:35:40.587Z,105.6
2017-07-26T02:37:39.185Z,105.8
2017-07-26T02:38:38.407Z,105.8
2017-07-26T02:39:37.628Z,105.8
2017-07-26T02:40:36.831Z,105.6
2017-07-26T02:41:35.914Z,105.6
2017-07-26T02:42:35.117Z,105.8
2017-07-26T02:43:34.328Z,105.6
2017-07-26T02:44:33.521Z,105.4
2017-07-26T02:45:04.028Z,105.4
2017-07-26T02:45:34.312Z,105.4
2017-07-26T02:46:04.825Z,105.4
2017-07-26T02:46:35.337Z,105.6
2017-07-26T02:47:05.858Z,105.6
2017-07-26T02:48:30.732Z,106
2017-07-26T02:49:29.940Z,106.1
2017-07-26T02:50:29.020Z,106.2
2017-07-26T02:51:28.229Z,106.3
2017-07-26T02:52:27.452Z,106.3
2017-07-26T02:53:26.654Z,106.3
2017-07-26T02:54:25.856Z,106.4
2017-07-26T02:55:25.042Z,106.2
2017-07-26T02:56:24.742Z,106.1
2017-07-26T02:57:23.950Z,106.3
2017-07-26T02:58:23.038Z,106.3
2017-07-26T02:59:21.988Z,106.1
2017-07-26T03:00:21.454Z,105.9
2017-07-26T03:01:20.925Z,105.9
2017-07-26T03:02:19.891Z,105.8
2017-07-26T03:04:18.483Z,105.6
2017-07-26T03:05:17.700Z,105.7
2017-07-26T03:06:16.901Z,105.5
2017-07-26T03:08:15.493Z,105.5
2017-07-26T03:09:14.451Z,105.5
2017-07-26T03:10:13.535Z,105.4
2017-07-26T03:11:13.265Z,105.4
2017-07-26T03:12:12.364Z,105.4
2017-07-26T03:13:11.447Z,105.3
2017-07-26T03:14:10.642Z,105.2
2017-07-26T03:16:09.004Z,105.3
2017-07-26T03:17:08.220Z,105.3
2017-07-26T03:18:07.912Z,105.1
2017-07-26T03:19:07.118Z,105.3
2017-07-26T03:20:06.319Z,105.5
2017-07-26T03:21:05.400Z,105.5
2017-07-26T03:22:04.595Z,105.6
2017-07-26T03:23:04.064Z,105.6
2017-07-26T03:24:03.283Z,105.4
2017-07-26T03:25:02.491Z,105.5
2017-07-26T03:25:32.883Z,105.5
2017-07-26T03:26:03.390Z,105.6
2017-07-26T03:27:00.862Z,105.9
2017-07-26T03:28:59.461Z,105.8
2017-07-26T03:29:58.428Z,105.9
2017-07-26T03:30:57.643Z,105.9
2017-07-26T03:31:56.863Z,106
2017-07-26T03:33:55.455Z,105.9
2017-07-26T03:34:54.540Z,105.8
2017-07-26T03:35:53.739Z,105.8
2017-07-26T03:36:24.126Z,105.8
2017-07-26T03:36:54.645Z,105.8
2017-07-26T03:37:25.160Z,105.8
2017-07-26T03:37:55.681Z,105.4
2017-07-26T03:38:26.079Z,105.4
2017-07-26T03:40:50.343Z,105.4
2017-07-26T03:41:49.533Z,105.6
2017-07-26T03:42:48.617Z,105.7
2017-07-26T03:43:47.609Z,105.8
2017-07-26T03:44:46.814Z,105.6
2017-07-26T03:45:46.285Z,105.5
2017-07-26T03:46:45.477Z,105.7
2017-07-26T03:47:44.672Z,105.8
2017-07-26T03:48:43.879Z,105.8
2017-07-26T03:49:43.062Z,105.6
2017-07-26T03:50:42.638Z,105.5
2017-07-26T03:51:41.601Z,105.5
2017-07-26T03:53:40.186Z,105.3
2017-07-26T03:55:38.781Z,105.2
2017-07-26T03:56:37.991Z,105
2017-07-26T03:57:37.185Z,105.1
2017-07-26T03:58:36.282Z,105.3
2017-07-26T03:59:35.478Z,105.5
2017-07-26T04:00:34.667Z,105.5
2017-07-26T04:01:34.249Z,105.1
2017-07-26T04:02:33.208Z,105.1
2017-07-26T04:03:32.283Z,104.8
2017-07-26T04:04:32.000Z,104.8
2017-07-26T04:05:31.217Z,104.7
2017-07-26T04:06:30.420Z,104.7
2017-07-26T04:07:29.625Z,105
2017-07-26T04:08:28.823Z,105.1
2017-07-26T04:09:27.896Z,105.2
2017-07-26T04:10:27.098Z,105.3
2017-07-26T04:11:26.304Z,105.3
2017-07-26T04:12:25.390Z,105.5
2017-07-26T04:13:25.087Z,105.7
2017-07-26T04:14:24.282Z,105.8
2017-07-26T04:15:23.364Z,105.7
2017-07-26T04:16:22.459Z,106
2017-07-26T04:17:22.045Z,106
2017-07-26T04:18:21.122Z,106.1
2017-07-26T04:19:20.090Z,106.3
2017-07-26T04:20:19.676Z,106.3
2017-07-26T04:21:18.532Z,106.6
2017-07-26T04:22:18.120Z,106.7
2017-07-26T04:24:16.210Z,106.9
2017-07-26T04:25:15.788Z,106.8
2017-07-26T04:26:14.880Z,106.9
2017-07-26T04:27:13.850Z,107
2017-07-26T04:28:13.437Z,106.9
2017-07-26T04:29:12.409Z,107.1
2017-07-26T04:30:11.992Z,107.3
2017-07-26T04:31:11.206Z,107.3
2017-07-26T04:32:10.299Z,107.4
2017-07-26T04:32:40.829Z,107.4
2017-07-26T04:33:11.352Z,107.5
2017-07-26T04:33:41.748Z,107.5
2017-07-26T04:34:12.266Z,107.4
2017-07-26T04:34:42.654Z,107.4
2017-07-26T04:36:07.418Z,107.5
2017-07-26T04:39:04.893Z,107.5
2017-07-26T04:41:03.495Z,107.7
2017-07-26T04:42:02.697Z,107.7
2017-07-26T04:43:01.897Z,107.8
2017-07-26T04:44:00.974Z,107.7
2017-07-26T04:45:59.580Z,107.9
2017-07-26T04:47:57.931Z,108
2017-07-26T04:48:57.021Z,108.1
2017-07-26T04:49:56.222Z,108.1
2017-07-26T04:50:55.922Z,108
2017-07-26T04:51:55.120Z,108.3
2017-07-26T04:52:54.322Z,108.3
2017-07-26T04:53:53.521Z,108.2
2017-07-26T04:54:52.600Z,108.3
2017-07-26T04:57:50.074Z,108.6
2017-07-26T04:58:49.279Z,108.6
2017-07-26T04:59:48.980Z,108.6
2017-07-26T05:00:48.059Z,108.6
2017-07-26T05:01:47.266Z,108.4
2017-07-26T05:02:17.545Z,108.4
2017-07-26T05:02:48.056Z,108.3
2017-07-26T05:03:18.437Z,108.3
2017-07-26T05:03:48.837Z,108.3
2017-07-26T05:04:19.232Z,108.3
2017-07-26T05:05:44.112Z,108.4
2017-07-26T05:06:43.209Z,108.5
2017-07-26T05:07:42.409Z,108.2
2017-07-26T05:08:41.999Z,108.1
2017-07-26T05:09:41.197Z,108.1
2017-07-26T05:11:39.283Z,108
2017-07-26T05:12:38.987Z,108
2017-07-26T05:13:38.180Z,107.9
2017-07-26T05:14:37.389Z,107.8
2017-07-26T05:15:36.598Z,107.8
2017-07-26T05:17:34.567Z,107.4
2017-07-26T05:18:34.280Z,107.4
2017-07-26T05:19:33.369Z,107.5
2017-07-26T05:20:32.568Z,107.3
2017-07-26T05:21:31.769Z,107.4
2017-07-26T05:22:30.965Z,107.1
2017-07-26T05:23:30.170Z,107
2017-07-26T05:24:29.365Z,106.9
2017-07-26T05:24:59.880Z,106.9
2017-07-26T05:25:30.166Z,106.9
2017-07-26T05:26:00.679Z,106.9
2017-07-26T05:27:27.319Z,106.8
2017-07-26T05:28:26.515Z,106.7
2017-07-26T05:29:25.733Z,107
2017-07-26T05:30:25.078Z,106.8
2017-07-26T05:31:24.165Z,106.4
2017-07-26T05:32:23.366Z,106.6
2017-07-26T05:33:22.441Z,106.6
2017-07-26T05:34:21.925Z,106.6
2017-07-26T05:35:21.014Z,106.6
2017-07-26T05:36:20.485Z,106.6
2017-07-26T05:38:18.946Z,106.1
2017-07-26T05:40:17.031Z,105.7
2017-07-26T05:41:16.115Z,105.6
2017-07-26T05:42:15.698Z,105.5
2017-07-26T05:43:14.783Z,105.6
2017-07-26T05:44:13.984Z,105.6
2017-07-26T05:44:44.486Z,105.6
2017-07-26T05:46:12.389Z,105.4
2017-07-26T05:47:11.968Z,105.5
2017-07-26T05:48:10.932Z,105.1
2017-07-26T05:49:10.138Z,104.7
2017-07-26T05:50:09.325Z,104.4
2017-07-26T05:51:09.043Z,104.9
2017-07-26T05:52:08.248Z,105
2017-07-26T05:53:07.328Z,105
2017-07-26T05:54:06.553Z,105.2
2017-07-26T05:55:05.641Z,105
2017-07-26T05:55:36.169Z,105
2017-07-26T05:57:04.451Z,105.2
2017-07-26T05:58:03.651Z,105.1
2017-07-26T05:59:02.738Z,104.1
2017-07-26T06:00:01.939Z,104.3
2017-07-26T06:01:01.165Z,104.2
2017-07-26T06:02:00.368Z,104.1
2017-07-26T06:02:59.566Z,104.5
2017-07-26T06:03:58.783Z,104.9
2017-07-26T06:04:58.254Z,104.5
2017-07-26T06:05:57.346Z,104.4
2017-07-26T06:06:56.548Z,104.6
2017-07-26T06:07:55.625Z,104.8
2017-07-26T06:08:54.831Z,104.6
2017-07-26T06:09:54.555Z,104.7
2017-07-26T06:11:52.807Z,104
2017-07-26T06:12:52.004Z,104
2017-07-26T06:13:51.104Z,104.1
2017-07-26T06:14:50.177Z,104
2017-07-26T06:15:49.880Z,104.2
2017-07-26T06:16:49.168Z,104.5
2017-07-26T06:17:48.388Z,104.4
2017-07-26T06:18:47.475Z,104.5
2017-07-26T06:19:46.674Z,104.2
2017-07-26T06:20:45.764Z,104.1
2017-07-26T06:21:16.269Z,104.1
2017-07-26T06:22:44.675Z,103.6
2017-07-26T06:23:43.760Z,102
2017-07-26T06:24:42.964Z,102.5
2017-07-26T06:25:42.043Z,102.6
2017-07-26T06:26:41.257Z,103
2017-07-26T06:27:40.469Z,102.6
2017-07-26T06:28:39.546Z,102.3
2017-07-26T06:29:39.020Z,102.8
2017-07-26T06:30:38.090Z,102.5
2017-07-26T06:31:37.684Z,102
2017-07-26T06:32:36.640Z,102.4
2017-07-26T06:33:07.163Z,102.4
2017-07-26T06:33:37.561Z,102.7
2017-07-26T06:34:35.135Z,102.7
2017-07-26T06:35:34.329Z,102.2
2017-07-26T06:36:33.920Z,101.8
2017-07-26T06:37:33.139Z,101.2
2017-07-26T06:40:30.616Z,101.5
2017-07-26T06:41:30.191Z,101.6
2017-07-26T06:42:29.284Z,101.1
2017-07-26T06:43:28.478Z,101.2
2017-07-26T06:44:27.695Z,101.5
2017-07-26T06:45:27.279Z,101.9
2017-07-26T06:46:26.263Z,101.6
2017-07-26T06:47:25.462Z,101.7
2017-07-26T06:48:24.670Z,101.9
2017-07-26T06:49:24.159Z,101.8
2017-07-26T06:50:23.354Z,101.8
2017-07-26T06:50:53.872Z,101.8
2017-07-26T06:51:24.392Z,101.7
2017-07-26T06:51:54.784Z,101.7
2017-07-26T06:52:25.175Z,101.7
2017-07-26T06:52:55.448Z,101.7
2017-07-26T06:54:20.331Z,101.4
2017-07-26T06:55:19.522Z,101.7
2017-07-26T06:56:18.613Z,101.9
2017-07-26T06:57:18.078Z,101.8
2017-07-26T06:58:17.169Z,101.9
2017-07-26T06:59:16.245Z,101
2017-07-26T07:00:15.936Z,100.1
2017-07-26T07:01:15.024Z,99.7
2017-07-26T07:02:14.232Z,99.9
2017-07-26T07:03:13.425Z,99.7
2017-07-26T07:04:12.519Z,99.8
2017-07-26T07:05:12.114Z,100
2017-07-26T07:06:11.318Z,99.6
2017-07-26T07:07:10.406Z,99.6
2017-07-26T07:08:09.611Z,100
2017-07-26T07:09:08.817Z,100.5
2017-07-26T07:10:08.412Z,100.4
2017-07-26T07:11:07.484Z,100.6
2017-07-26T07:13:06.098Z,101.2
2017-07-26T07:14:05.302Z,101.1
2017-07-26T07:14:35.822Z,101.1
2017-07-26T07:16:03.460Z,101.3
2017-07-26T07:17:02.918Z,101.3
2017-07-26T07:18:02.120Z,101.1
2017-07-26T07:19:01.313Z,101.1
2017-07-26T07:20:00.506Z,101.1
2017-07-26T07:20:59.966Z,100.9
2017-07-26T07:21:59.068Z,100.3
2017-07-26T07:22:58.654Z,100.5
2017-07-26T07:23:57.850Z,100.7
2017-07-26T07:24:57.059Z,100.8
2017-07-26T07:25:56.271Z,100.7
2017-07-26T07:26:55.468Z,100.8
2017-07-26T07:27:54.686Z,100.6
2017-07-26T07:28:54.164Z,100.4
2017-07-26T07:29:53.353Z,100.4
2017-07-26T07:30:52.692Z,99.9
2017-07-26T07:31:51.885Z,99.5
2017-07-26T07:32:22.277Z,99.5
2017-07-26T07:32:53.053Z,99.6
2017-07-26T07:33:50.113Z,99.5
2017-07-26T07:34:49.310Z,99.6
2017-07-26T07:35:48.500Z,99.7
2017-07-26T07:36:48.198Z,99.9
2017-07-26T07:37:47.389Z,99.8
2017-07-26T07:38:46.491Z,98.9
2017-07-26T07:39:45.574Z,98.4
2017-07-26T07:40:44.768Z,98.7
2017-07-26T07:41:44.358Z,98.4
2017-07-26T07:42:43.328Z,98.2
2017-07-26T07:43:13.605Z,98.2
2017-07-26T07:43:44.124Z,98.3
2017-07-26T07:44:14.639Z,98.3
2017-07-26T07:45:41.535Z,97.5
2017-07-26T07:46:40.765Z,97.8
2017-07-26T07:48:38.854Z,97.4
2017-07-26T07:49:38.551Z,97
2017-07-26T07:50:37.754Z,97.3
2017-07-26T07:51:36.721Z,96.1
2017-07-26T07:52:35.812Z,96.7
2017-07-26T07:53:35.530Z,95.9
2017-07-26T07:54:34.626Z,95.1
2017-07-26T07:55:33.832Z,95.5
2017-07-26T07:56:32.928Z,95.7
2017-07-26T07:57:32.639Z,95.9
2017-07-26T07:58:31.602Z,96.3
2017-07-26T07:59:30.996Z,96.1
2017-07-26T08:00:30.206Z,96.4
2017-07-26T08:01:29.324Z,96.6
2017-07-26T08:02:28.542Z,96.9
2017-07-26T08:03:27.770Z,97
2017-07-26T08:04:27.472Z,97.4
2017-07-26T08:05:26.670Z,97.7
2017-07-26T08:06:25.758Z,97.5
2017-07-26T08:07:24.958Z,97.1
2017-07-26T08:08:24.531Z,97
2017-07-26T08:09:23.494Z,97
2017-07-26T08:10:22.582Z,97.6
2017-07-26T08:11:22.172Z,97.3
2017-07-26T08:12:21.258Z,97.7
2017-07-26T08:13:20.853Z,98.2
2017-07-26T08:14:19.956Z,98.4
2017-07-26T08:15:19.153Z,98.2
2017-07-26T08:16:18.239Z,98.5
2017-07-26T08:17:17.943Z,98.6
2017-07-26T08:18:17.024Z,98.9
2017-07-26T08:19:16.238Z,98.4
2017-07-26T08:20:15.308Z,98.2
2017-07-26T08:21:14.512Z,98.3
2017-07-26T08:22:14.229Z,98.3
2017-07-26T08:23:13.432Z,98
2017-07-26T08:25:12.034Z,98.8
2017-07-26T08:26:10.874Z,98.7
2017-07-26T08:27:10.572Z,98.5
2017-07-26T08:28:09.641Z,98.4
2017-07-26T08:29:08.732Z,98.4
2017-07-26T08:30:08.313Z,98.7
2017-07-26T08:31:07.527Z,98.8
2017-07-26T08:32:06.738Z,99.1
2017-07-26T08:33:05.957Z,98.6
2017-07-26T08:34:05.051Z,98.5
2017-07-26T08:35:04.241Z,98.6
2017-07-26T08:36:03.951Z,98.8
2017-07-26T08:37:03.035Z,99.3
2017-07-26T08:38:02.240Z,99.6
2017-07-26T08:39:01.443Z,99.8
2017-07-26T08:39:31.957Z,99.8
2017-07-26T08:40:02.522Z,99.9
2017-07-26T08:40:33.185Z,99.9
2017-07-26T08:41:03.696Z,99.8
2017-07-26T08:41:34.087Z,99.8
2017-07-26T08:42:58.458Z,99.9
2017-07-26T08:43:57.650Z,100.3
2017-07-26T08:44:57.356Z,100.1
2017-07-26T08:45:56.559Z,100.7
2017-07-26T08:46:55.520Z,100.7
2017-07-26T08:47:54.983Z,100.5
2017-07-26T08:48:53.957Z,100.6
2017-07-26T08:49:53.574Z,100.9
2017-07-26T08:50:52.785Z,100.7
2017-07-26T08:51:23.053Z,100.7
2017-07-26T08:51:53.442Z,101
2017-07-26T08:52:23.848Z,101
2017-07-26T08:53:50.609Z,101.8
2017-07-26T08:54:49.804Z,102.7
2017-07-26T08:55:48.885Z,102.1
2017-07-26T08:56:48.095Z,102.9
2017-07-26T08:57:47.794Z,103.3
2017-07-26T08:58:47.005Z,103.2
2017-07-26T08:59:46.203Z,103.8
2017-07-26T09:00:45.186Z,104.2
2017-07-26T09:01:44.898Z,104.2
2017-07-26T09:02:43.969Z,104.4
2017-07-26T09:03:43.183Z,104.5
2017-07-26T09:04:42.375Z,104.8
2017-07-26T09:05:41.587Z,105.1
2017-07-26T09:06:41.182Z,105.1
2017-07-26T09:07:40.403Z,105.1
2017-07-26T09:08:39.600Z,105.6
2017-07-26T09:09:10.105Z,105.6
2017-07-26T09:09:40.611Z,105.8
2017-07-26T09:10:11.005Z,105.8
2017-07-26T09:11:37.373Z,106.1
2017-07-26T09:12:36.575Z,106.2
2017-07-26T09:13:35.776Z,106.5
2017-07-26T09:14:34.862Z,106.6
2017-07-26T09:15:34.459Z,106.3
2017-07-26T09:16:33.535Z,106.4
2017-07-26T09:17:32.760Z,106.7
2017-07-26T09:18:32.345Z,106.6
2017-07-26T09:19:31.441Z,106.7
2017-07-26T09:20:30.646Z,107.1
2017-07-26T09:21:29.914Z,106.5
2017-07-26T09:22:28.871Z,106.5
2017-07-26T09:23:28.489Z,106.9
2017-07-26T09:24:27.694Z,107.3
2017-07-26T09:25:26.894Z,107.5
2017-07-26T09:26:26.475Z,107.8
2017-07-26T09:27:25.679Z,107.9
2017-07-26T09:28:24.892Z,108.2
2017-07-26T09:29:23.975Z,108.3
2017-07-26T09:30:23.564Z,108
2017-07-26T09:31:22.769Z,108.1
2017-07-26T09:31:52.928Z,108.1
2017-07-26T09:32:23.331Z,108.3
2017-07-26T09:32:54.115Z,108.3
2017-07-26T09:34:20.488Z,108.3
2017-07-26T09:35:19.565Z,108.3
2017-07-26T09:36:18.654Z,108.4
2017-07-26T09:37:18.355Z,108.5
2017-07-26T09:38:17.329Z,108.7
2017-07-26T09:39:16.914Z,108.8
2017-07-26T09:40:15.816Z,108.9
2017-07-26T09:41:15.016Z,109
2017-07-26T09:42:14.626Z,109
2017-07-26T09:44:13.117Z,108.8
2017-07-26T09:45:12.202Z,108.9
2017-07-26T09:46:11.415Z,108.9
2017-07-26T09:47:10.629Z,109.1
2017-07-26T09:48:09.820Z,109.2
2017-07-26T09:49:09.530Z,109.2
2017-07-26T09:50:08.618Z,109.3
2017-07-26T09:51:07.702Z,109.3
2017-07-26T09:52:06.918Z,109.4
2017-07-26T09:53:06.623Z,109.5
2017-07-26T09:54:05.589Z,109.4
2017-07-26T09:55:04.785Z,109.5
2017-07-26T09:56:04.000Z,109.5
2017-07-26T09:57:03.218Z,109.5
2017-07-26T09:58:02.811Z,109.3
2017-07-26T09:59:01.891Z,109.4
2017-07-26T10:00:00.980Z,109.2
2017-07-26T10:01:00.693Z,109.2
2017-07-26T10:01:59.777Z,109.4
2017-07-26T10:02:58.869Z,109.3
2017-07-26T10:03:29.394Z,109.3
2017-07-26T10:03:59.904Z,109.4
2017-07-26T10:04:57.602Z,109.3
2017-07-26T10:05:56.801Z,109.1
2017-07-26T10:06:56.003Z,109
2017-07-26T10:07:55.198Z,108.6
2017-07-26T10:08:54.443Z,108.5
2017-07-26T10:09:53.922Z,108.5
2017-07-26T10:10:53.111Z,108.4
2017-07-26T10:11:52.185Z,108.5
2017-07-26T10:12:51.904Z,108.5
2017-07-26T10:13:51.124Z,108.3
2017-07-26T10:14:50.199Z,108.2
2017-07-26T10:15:49.392Z,108.1
2017-07-26T10:16:48.595Z,108.3
2017-07-26T10:17:47.794Z,108.4
2017-07-26T10:19:46.383Z,108.1
2017-07-26T10:20:45.587Z,108.2
2017-07-26T10:21:45.290Z,108.1
2017-07-26T10:22:44.363Z,107.7
2017-07-26T10:23:43.554Z,107.4
2017-07-26T10:24:42.771Z,107.6
2017-07-26T10:25:41.969Z,107.4
2017-07-26T10:26:41.689Z,107.5
2017-07-26T10:27:40.761Z,107.7
2017-07-26T10:28:11.305Z,107.7
2017-07-26T10:28:41.718Z,107.9
2017-07-26T10:29:12.108Z,107.9
2017-07-26T10:30:38.770Z,107.4
2017-07-26T10:31:38.018Z,107.4
2017-07-26T10:33:36.176Z,106.6
2017-07-26T10:34:35.847Z,106.6
2017-07-26T10:35:35.058Z,106.7
2017-07-26T10:36:34.254Z,106.8
2017-07-26T10:37:33.468Z,107.2
2017-07-26T10:38:32.680Z,106.6
2017-07-26T10:39:31.898Z,106.7
2017-07-26T10:40:02.287Z,106.7
2017-07-26T10:41:30.720Z,106.4
2017-07-26T10:42:29.793Z,106.3
2017-07-26T10:43:28.874Z,106
2017-07-26T10:44:28.221Z,106.2
2017-07-26T10:45:27.444Z,106.1
2017-07-26T10:46:27.031Z,106.1
2017-07-26T10:47:26.245Z,106.1
2017-07-26T10:48:25.328Z,105.7
2017-07-26T10:49:24.409Z,105.2
2017-07-26T10:50:24.118Z,105.6
2017-07-26T10:51:23.198Z,105.8
2017-07-26T10:52:22.411Z,106
2017-07-26T10:53:21.871Z,106.4
2017-07-26T10:54:20.840Z,106
2017-07-26T10:55:20.432Z,105.2
2017-07-26T10:56:19.515Z,105
2017-07-26T10:57:18.984Z,104.3
2017-07-26T10:57:49.496Z,104.3
2017-07-26T10:58:20.013Z,104.6
2017-07-26T10:58:50.169Z,104.6
2017-07-26T10:59:20.685Z,104.7
2017-07-26T10:59:51.074Z,104.7
2017-07-26T11:01:15.867Z,105
2017-07-26T11:02:15.082Z,105.1
2017-07-26T11:03:14.283Z,105
2017-07-26T11:04:13.993Z,105
2017-07-26T11:05:12.965Z,104.7
2017-07-26T11:06:12.057Z,103.8
2017-07-26T11:07:11.752Z,104.3
2017-07-26T11:08:10.837Z,104.7
2017-07-26T11:09:10.035Z,104.7
2017-07-26T11:10:09.225Z,105
2017-07-26T11:11:08.702Z,105.2
2017-07-26T11:12:07.897Z,105
2017-07-26T11:12:38.556Z,105
2017-07-26T11:13:09.073Z,104.9
2017-07-26T11:14:06.150Z,104.7
2017-07-26T11:15:05.734Z,104.7
2017-07-26T11:16:04.830Z,104.8
2017-07-26T11:17:04.300Z,104.5
2017-07-26T11:18:03.771Z,104.9
2017-07-26T11:19:02.734Z,105.1
2017-07-26T11:20:01.949Z,105.2
2017-07-26T11:21:01.032Z,105.2
2017-07-26T11:21:31.425Z,105.2
2017-07-26T11:22:01.935Z,105.2
2017-07-26T11:22:59.905Z,105.1
2017-07-26T11:23:58.990Z,105.6
2017-07-26T11:24:58.204Z,105.5
2017-07-26T11:25:57.780Z,105.7
2017-07-26T11:26:56.982Z,105.9
2017-07-26T11:27:56.189Z,106.1
2017-07-26T11:28:55.456Z,105.6
2017-07-26T11:29:54.550Z,105.5
2017-07-26T11:30:53.816Z,105.9
2017-07-26T11:31:53.521Z,106.2
2017-07-26T11:32:52.731Z,106.1
2017-07-26T11:33:51.940Z,106.3
2017-07-26T11:34:51.145Z,106.8
2017-07-26T11:35:50.226Z,106.7
2017-07-26T11:36:49.315Z,106.9
2017-07-26T11:37:49.038Z,107.2
2017-07-26T11:38:48.244Z,107.4
2017-07-26T11:39:47.442Z,107
2017-07-26T11:40:46.643Z,106.9
2017-07-26T11:41:45.852Z,106.6
2017-07-26T11:42:44.935Z,106.7
2017-07-26T11:43:44.644Z,107.1
2017-07-26T11:44:43.706Z,107.2
2017-07-26T11:45:42.906Z,107.3
2017-07-26T11:46:42.105Z,107.4
2017-07-26T11:47:41.309Z,107.7
2017-07-26T11:48:40.520Z,107.2
2017-07-26T11:49:40.221Z,107.4
2017-07-26T11:50:39.435Z,107
2017-07-26T11:51:09.939Z,107
2017-07-26T11:51:40.438Z,107.2
2017-07-26T11:52:10.974Z,107.2
2017-07-26T11:52:41.354Z,107.2
2017-07-26T11:53:11.638Z,107.2
2017-07-26T11:53:42.182Z,107.5
2017-07-26T11:54:36.259Z,107.8
2017-07-26T11:55:35.524Z,107.5
2017-07-26T11:56:34.733Z,107
2017-07-26T11:57:34.313Z,107
2017-07-26T11:58:33.526Z,107.1
2017-07-26T11:59:32.491Z,107
2017-07-26T12:00:31.681Z,106.8
2017-07-26T12:01:30.753Z,107.1
2017-07-26T12:02:30.476Z,106.3
2017-07-26T12:03:29.686Z,106.7
2017-07-26T12:04:28.881Z,106.7
2017-07-26T12:05:27.836Z,106.7
2017-07-26T12:06:27.553Z,106.6
2017-07-26T12:07:26.641Z,106.6
2017-07-26T12:08:25.720Z,106.5
2017-07-26T12:09:25.307Z,106.4
2017-07-26T12:10:24.411Z,106.7
2017-07-26T12:11:23.510Z,106.9
2017-07-26T12:12:22.986Z,107.2
2017-07-26T12:13:22.077Z,106.1
2017-07-26T12:14:21.412Z,106
2017-07-26T12:15:20.617Z,106
2017-07-26T12:16:20.195Z,105.6
2017-07-26T12:17:19.162Z,106.2
2017-07-26T12:18:18.371Z,106.2
2017-07-26T12:19:17.951Z,105.8
2017-07-26T12:20:17.032Z,106.1
2017-07-26T12:21:16.115Z,106.6
2017-07-26T12:22:15.318Z,105.6
2017-07-26T12:23:15.038Z,105.9
2017-07-26T12:24:14.117Z,106
2017-07-26T12:25:13.310Z,105.9
2017-07-26T12:26:12.421Z,106.1
2017-07-26T12:27:12.010Z,106.6
2017-07-26T12:28:11.193Z,106.3
2017-07-26T12:29:10.052Z,106.2
2017-07-26T12:30:09.645Z,106
2017-07-26T12:31:08.726Z,106.4
2017-07-26T12:32:07.944Z,107
2017-07-26T12:33:07.535Z,106.9
2017-07-26T12:34:06.633Z,106.1
2017-07-26T12:35:05.979Z,106.4
2017-07-26T12:36:04.938Z,106.1
2017-07-26T12:37:04.535Z,105.9
2017-07-26T12:38:03.616Z,106.2
2017-07-26T12:39:02.830Z,106.4
2017-07-26T12:40:02.024Z,106.7
2017-07-26T12:41:01.605Z,106.8
2017-07-26T12:42:00.693Z,105.7
2017-07-26T12:42:59.779Z,106.2
2017-07-26T12:43:59.237Z,106
2017-07-26T12:44:58.320Z,105.4
2017-07-26T12:45:58.019Z,105.5
2017-07-26T12:46:56.968Z,105.9
2017-07-26T12:47:27.477Z,105.9
2017-07-26T12:47:57.871Z,105.5